Aviation Digital Data Service (ADDS)

Output produced by METARs form (1924 UTC 24 July 2014)
found at http://aviationweather.gov/adds/metars/
 
KLCH 241720Z 2418/2518 VRB05KT P6SM VCTS SCT025CB SCT040 
     FM250200 VRB03KT P6SM SKC